Time;durP1;ratioP1;P1;durP2;ratioP2;P2;SDS_P1;SDS_P2;PMS_P1;PMS_P2;Temp;Humidity;BMP_temperature;BMP_pressure;BME280_temperature;BME280_humidity;BME280_pressure;Samples;Min_cycle;Max_cycle;Signal;HPM_P1;HPM_P2
2020/12/23 00:00:00;;;;;;;5.50;4.30;;;;;;;;;;5053233;28;20377;-73
2020/12/23 00:02:26;;;;;;;6.93;4.90;;;;;;;;;;5052728;28;20477;-74
2020/12/23 00:04:52;;;;;;;5.50;4.40;;;11.40;99.90;;;;;;5053074;28;20460;-75
2020/12/23 00:07:17;;;;;;;6.73;4.23;;;11.50;99.90;;;;;;5052773;28;20805;-74
2020/12/23 00:09:44;;;;;;;5.57;4.10;;;11.50;99.90;;;;;;5052883;28;21020;-72
2020/12/23 00:12:10;;;;;;;4.72;3.67;;;;;;;;;;5052543;28;20492;-72
2020/12/23 00:14:36;;;;;;;5.35;4.35;;;;;;;;;;5052701;28;20397;-75
2020/12/23 00:17:03;;;;;;;5.05;4.40;;;;;;;;;;5052625;28;20609;-73
2020/12/23 00:19:29;;;;;;;4.35;3.83;;;;;;;;;;5052716;28;20382;-74
2020/12/23 00:21:54;;;;;;;4.90;3.10;;;;;;;;;;5052561;28;20416;-74
2020/12/23 00:24:20;;;;;;;4.88;4.03;;;;;;;;;;5052536;28;20385;-74
2020/12/23 00:26:46;;;;;;;4.18;3.78;;;11.60;99.90;;;;;;5052599;28;20382;-73
2020/12/23 00:29:12;;;;;;;4.45;3.60;;;11.40;99.90;;;;;;5052590;28;20393;-72
2020/12/23 00:31:39;;;;;;;5.90;3.63;;;11.40;99.90;;;;;;5052302;28;20849;-72
2020/12/23 00:34:04;;;;;;;4.88;3.38;;;11.50;99.90;;;;;;5052352;28;20378;-71
2020/12/23 00:36:30;;;;;;;4.70;3.90;;;12.20;99.90;;;;;;5052099;28;20883;-71
2020/12/23 00:38:56;;;;;;;3.23;2.53;;;;;;;;;;5052587;28;20382;-71
2020/12/23 00:41:22;;;;;;;3.38;2.80;;;;;;;;;;5052264;28;20388;-71
2020/12/23 00:43:47;;;;;;;4.15;2.67;;;11.50;99.90;;;;;;5052058;28;20414;-71
2020/12/23 00:46:14;;;;;;;3.65;2.70;;;11.50;99.90;;;;;;5052050;28;20386;-73
2020/12/23 00:48:41;;;;;;;3.20;2.90;;;11.70;99.90;;;;;;5052123;28;20385;-72
2020/12/23 00:51:11;;;;;;;3.00;2.30;;;11.60;99.90;;;;;;5051940;28;20444;-71
2020/12/23 00:53:37;;;;;;;3.13;2.50;;;12.00;99.90;;;;;;5051860;28;20772;-71
2020/12/23 00:56:03;;;;;;;3.65;2.45;;;11.60;99.90;;;;;;5051946;28;21065;-72
2020/12/23 00:58:28;;;;;;;2.97;2.30;;;11.60;99.90;;;;;;5051745;28;20461;-71
2020/12/23 01:00:54;;;;;;;3.17;2.40;;;11.60;99.90;;;;;;5051857;28;20389;-72
2020/12/23 01:03:20;;;;;;;2.90;2.30;;;11.60;99.90;;;;;;5051669;28;20523;-72
2020/12/23 01:05:45;;;;;;;2.40;2.20;;;11.70;99.90;;;;;;5051626;28;20733;-72
2020/12/23 01:08:11;;;;;;;3.03;2.33;;;11.70;99.90;;;;;;5051820;28;20739;-72
2020/12/23 01:10:36;;;;;;;3.20;2.70;;;11.90;99.90;;;;;;5051632;28;20423;-73
2020/12/23 01:13:02;;;;;;;2.90;2.60;;;11.50;99.90;;;;;;5051469;28;20409;-73
2020/12/23 01:15:28;;;;;;;3.60;2.70;;;;;;;;;;5051428;28;20485;-72
2020/12/23 01:17:53;;;;;;;2.90;2.50;;;11.70;99.90;;;;;;5051583;28;20374;-72
2020/12/23 01:20:19;;;;;;;3.50;2.60;;;;;;;;;;5050179;28;20512;-72
2020/12/23 01:22:45;;;;;;;4.70;2.03;;;;;;;;;;5051334;28;20417;-73
2020/12/23 01:25:11;;;;;;;3.10;2.40;;;11.60;99.90;;;;;;5051380;28;20378;-73
2020/12/23 01:27:36;;;;;;;2.80;2.60;;;11.60;99.90;;;;;;5051301;28;20427;-73
2020/12/23 01:30:04;;;;;;;3.20;2.80;;;11.60;99.90;;;;;;5051282;28;20400;-73
2020/12/23 01:32:29;;;;;;;3.50;2.10;;;11.60;99.90;;;;;;5051044;28;20464;-73
2020/12/23 01:34:55;;;;;;;3.35;2.58;;;11.50;99.90;;;;;;5051109;28;20842;-72
2020/12/23 01:37:21;;;;;;;2.53;2.30;;;11.80;99.90;;;;;;5051202;28;20390;-72
2020/12/23 01:39:47;;;;;;;3.38;3.08;;;;;;;;;;5051191;28;20898;-74
2020/12/23 01:42:12;;;;;;;3.67;3.00;;;11.60;99.90;;;;;;5050841;28;20382;-73
2020/12/23 01:44:39;;;;;;;3.47;2.70;;;;;;;;;;5050969;28;20478;-73
2020/12/23 01:47:08;;;;;;;3.35;2.58;;;11.70;99.90;;;;;;5051053;28;21121;-71
2020/12/23 01:49:34;;;;;;;3.80;2.90;;;11.60;99.90;;;;;;5050874;28;20385;-71
2020/12/23 01:52:01;;;;;;;2.83;2.60;;;11.70;99.90;;;;;;5050985;28;20437;-73
2020/12/23 01:54:27;;;;;;;2.75;2.40;;;11.60;99.90;;;;;;5050797;28;20389;-73
2020/12/23 01:56:56;;;;;;;3.85;2.50;;;11.60;99.90;;;;;;5050852;28;20373;-73
2020/12/23 01:59:23;;;;;;;3.08;2.63;;;11.80;99.90;;;;;;5050815;28;20379;-73
2020/12/23 02:01:50;;;;;;;3.60;2.80;;;;;;;;;;5050767;28;20489;-72
2020/12/23 02:04:16;;;;;;;4.10;2.90;;;;;;;;;;5050549;28;20388;-73
2020/12/23 02:06:41;;;;;;;3.53;2.88;;;11.90;99.90;;;;;;5050644;28;20717;-72
2020/12/23 02:09:08;;;;;;;3.40;3.00;;;11.80;99.90;;;;;;5050252;28;20404;-74
2020/12/23 02:11:34;;;;;;;5.90;3.67;;;11.80;99.90;;;;;;5050447;28;20435;-73
2020/12/23 02:13:59;;;;;;;4.17;3.17;;;11.80;99.90;;;;;;5050239;28;20389;-73
2020/12/23 02:16:25;;;;;;;4.00;3.03;;;11.80;99.90;;;;;;5050589;28;20417;-72
2020/12/23 02:18:50;;;;;;;4.00;3.63;;;11.80;99.90;;;;;;5050514;28;20515;-73
2020/12/23 02:21:17;;;;;;;4.40;3.30;;;11.60;99.90;;;;;;5050618;28;20389;-73
2020/12/23 02:23:43;;;;;;;4.78;3.47;;;;;;;;;;5050227;28;20447;-73
2020/12/23 02:26:09;;;;;;;3.33;3.00;;;11.70;99.90;;;;;;5050590;28;20381;-73
2020/12/23 02:28:35;;;;;;;3.70;2.77;;;11.70;99.90;;;;;;5050386;28;20505;-73
2020/12/23 02:31:02;;;;;;;3.40;3.10;;;11.60;99.90;;;;;;5050449;28;20392;-73
2020/12/23 02:33:28;;;;;;;3.10;2.80;;;11.80;99.90;;;;;;5050070;28;20409;-73
2020/12/23 02:35:54;;;;;;;2.65;2.45;;;11.80;99.90;;;;;;5050273;28;20474;-74
2020/12/23 02:38:19;;;;;;;3.22;2.75;;;11.90;99.90;;;;;;5050339;28;20436;-73
2020/12/23 02:40:45;;;;;;;3.00;2.70;;;;;;;;;;5050304;28;20393;-73
2020/12/23 02:43:11;;;;;;;3.22;2.40;;;11.70;99.90;;;;;;5050032;28;20400;-73
2020/12/23 02:45:37;;;;;;;3.30;2.45;;;11.80;99.90;;;;;;5050328;28;20386;-73
2020/12/23 02:48:03;;;;;;;2.67;2.47;;;;;;;;;;5050115;28;20389;-72
2020/12/23 02:50:28;;;;;;;4.28;2.58;;;11.80;99.90;;;;;;5050304;28;20385;-73
2020/12/23 02:52:54;;;;;;;3.33;2.40;;;11.70;99.90;;;;;;5049941;28;20405;-73
2020/12/23 02:55:19;;;;;;;2.53;2.00;;;11.80;99.90;;;;;;5050259;28;20381;-74
2020/12/23 02:57:45;;;;;;;2.80;2.07;;;11.80;99.90;;;;;;5049960;28;20733;-74
2020/12/23 03:00:11;;;;;;;3.67;2.17;;;;;;;;;;5050181;28;20385;-73
2020/12/23 03:02:37;;;;;;;2.20;2.00;;;;;;;;;;5049744;28;20819;-73
2020/12/23 03:05:03;;;;;;;2.37;1.80;;;;;;;;;;5050265;28;20417;-73
2020/12/23 03:07:29;;;;;;;2.63;1.90;;;11.80;99.90;;;;;;5049965;28;20479;-74
2020/12/23 03:09:55;;;;;;;2.70;1.90;;;11.90;99.90;;;;;;5050102;28;20390;-73
2020/12/23 03:12:20;;;;;;;3.72;2.08;;;11.80;99.90;;;;;;5049751;28;20449;-74
2020/12/23 03:14:46;;;;;;;2.10;1.77;;;11.80;99.90;;;;;;5049859;28;20390;-73
2020/12/23 03:17:11;;;;;;;3.13;1.90;;;11.80;99.90;;;;;;5049788;28;20381;-73
2020/12/23 03:19:37;;;;;;;3.07;1.87;;;12.00;99.90;;;;;;5050051;28;20729;-73
2020/12/23 03:22:02;;;;;;;3.67;1.87;;;11.80;99.90;;;;;;5052439;28;21226;-73
2020/12/23 03:24:28;;;;;;;3.28;2.20;;;11.90;99.90;;;;;;5053605;28;20381;-74
2020/12/23 03:26:54;;;;;;;2.47;2.17;;;;;;;;;;5053550;28;20381;-73
2020/12/23 03:29:19;;;;;;;3.40;2.10;;;11.90;99.90;;;;;;5053629;28;20422;-74
2020/12/23 03:31:45;;;;;;;4.00;2.00;;;11.90;99.90;;;;;;5053378;28;20401;-74
2020/12/23 03:34:10;;;;;;;2.87;2.00;;;12.00;99.90;;;;;;5053404;28;20390;-73
2020/12/23 03:36:36;;;;;;;3.07;2.20;;;11.90;99.90;;;;;;5053361;28;20393;-74
2020/12/23 03:39:02;;;;;;;3.50;3.08;;;11.80;99.90;;;;;;5060938;28;20390;-74
2020/12/23 03:41:28;;;;;;;3.78;2.40;;;;;;;;;;5067290;28;20397;-74
2020/12/23 03:43:54;;;;;;;3.20;2.10;;;;;;;;;;5053165;28;20403;-74
2020/12/23 03:46:19;;;;;;;3.05;2.17;;;11.80;99.90;;;;;;5053148;28;20401;-73
2020/12/23 03:48:45;;;;;;;2.60;2.03;;;11.80;99.90;;;;;;5053255;28;20427;-73
2020/12/23 03:51:10;;;;;;;3.67;1.90;;;11.90;99.90;;;;;;5053104;28;20779;-73
2020/12/23 03:53:36;;;;;;;3.70;1.80;;;;;;;;;;5053038;28;20392;-74
2020/12/23 03:56:03;;;;;;;3.20;1.90;;;;;;;;;;5053062;28;20370;-73
2020/12/23 03:58:28;;;;;;;2.65;1.90;;;11.90;99.90;;;;;;5053080;28;20405;-73
2020/12/23 04:00:54;;;;;;;3.80;2.00;;;;;;;;;;5052924;28;20476;-73
2020/12/23 04:03:20;;;;;;;2.30;1.85;;;;;;;;;;5052846;28;20813;-72
2020/12/23 04:05:46;;;;;;;3.75;2.00;;;12.40;99.90;;;;;;5052860;28;20388;-71
2020/12/23 04:08:12;;;;;;;1.30;1.00;;;12.10;99.90;;;;;;5052916;28;20384;-71
2020/12/23 04:10:37;;;;;;;2.33;1.20;;;11.90;99.90;;;;;;5052843;28;20860;-71
2020/12/23 04:13:03;;;;;;;1.55;1.00;;;11.80;99.90;;;;;;5052538;28;20455;-71
2020/12/23 04:15:29;;;;;;;1.70;0.90;;;;;;;;;;5052622;28;20429;-72
2020/12/23 04:17:55;;;;;;;2.47;0.80;;;11.60;99.90;;;;;;5052765;28;20393;-71
2020/12/23 04:20:21;;;;;;;0.67;0.47;;;11.30;99.90;;;;;;5052704;28;20381;-70
2020/12/23 04:22:46;;;;;;;1.10;0.60;;;11.20;99.90;;;;;;5052509;28;20960;-71
2020/12/23 04:25:12;;;;;;;1.23;0.83;;;11.40;99.90;;;;;;5052671;28;20381;-71
2020/12/23 04:27:38;;;;;;;2.40;1.38;;;11.30;99.90;;;;;;5052492;28;20382;-71
2020/12/23 04:30:05;;;;;;;3.00;1.67;;;;;;;;;;5052572;28;20781;-71
2020/12/23 04:32:31;;;;;;;2.00;1.38;;;;;;;;;;5050246;28;20429;-72
2020/12/23 04:35:01;;;;;;;2.33;1.10;;;11.60;99.90;;;;;;5052374;28;20401;-72
2020/12/23 04:37:27;;;;;;;2.03;0.93;;;11.30;99.90;;;;;;5052411;28;20385;-71
2020/12/23 04:39:52;;;;;;;1.60;0.70;;;11.30;99.90;;;;;;5052352;28;20388;-72
2020/12/23 04:42:18;;;;;;;0.80;0.70;;;;;;;;;;5052088;28;20404;-72
2020/12/23 04:44:44;;;;;;;2.03;0.90;;;11.50;99.90;;;;;;5052193;28;20389;-72
2020/12/23 04:47:11;;;;;;;1.10;0.80;;;;;;;;;;5052178;28;20386;-73
2020/12/23 04:49:38;;;;;;;1.80;0.70;;;;;;;;;;5052181;28;20757;-72
2020/12/23 04:52:08;;;;;;;2.05;0.82;;;11.90;99.90;;;;;;5051969;28;20451;-73
2020/12/23 04:54:34;;;;;;;1.52;0.90;;;11.50;99.90;;;;;;5052112;28;20374;-74
2020/12/23 04:57:01;;;;;;;2.45;1.10;;;11.30;99.90;;;;;;5051949;28;20409;-72
2020/12/23 04:59:28;;;;;;;3.17;1.40;;;;;;;;;;5051986;28;20885;-72
2020/12/23 05:01:54;;;;;;;3.45;1.58;;;;;;;;;;5051946;28;20385;-71
2020/12/23 05:04:19;;;;;;;2.97;1.30;;;11.40;99.90;;;;;;5051669;28;20909;-71
2020/12/23 05:06:47;;;;;;;2.60;1.80;;;;;;;;;;5051820;28;20439;-72
2020/12/23 05:09:13;;;;;;;4.50;1.50;;;;;;;;;;5051764;28;20447;-72
2020/12/23 05:11:39;;;;;;;5.80;4.60;;;11.20;99.90;;;;;;5051528;28;20409;-72
2020/12/23 05:14:05;;;;;;;5.00;4.13;;;11.20;99.90;;;;;;5051292;28;20743;-72
2020/12/23 05:16:32;;;;;;;8.02;4.97;;;;;;;;;;5051632;28;20868;-72
2020/12/23 05:18:59;;;;;;;5.10;2.95;;;11.40;99.90;;;;;;5051456;28;20385;-72
2020/12/23 05:21:27;;;;;;;4.57;2.80;;;11.20;99.90;;;;;;5051576;28;20385;-72
2020/12/23 05:23:54;;;;;;;3.38;2.53;;;11.40;99.90;;;;;;5051258;28;20397;-73
2020/12/23 05:26:21;;;;;;;5.33;3.00;;;11.60;99.90;;;;;;5051314;28;20515;-72
2020/12/23 05:28:47;;;;;;;4.20;2.70;;;11.10;99.90;;;;;;5051356;28;20386;-72
2020/12/23 05:31:14;;;;;;;3.50;2.00;;;;;;;;;;5051331;28;20390;-72
2020/12/23 05:33:42;;;;;;;3.40;3.10;;;11.20;99.90;;;;;;5051070;28;20436;-73
2020/12/23 05:36:14;;;;;;;4.72;2.60;;;11.50;99.90;;;;;;5051007;28;20922;-72
2020/12/23 05:38:41;;;;;;;4.00;2.90;;;;;;;;;;5051116;28;20440;-71
2020/12/23 05:41:09;;;;;;;3.35;2.10;;;11.10;99.90;;;;;;5051088;28;20392;-72
2020/12/23 05:43:35;;;;;;;4.40;2.90;;;11.20;99.90;;;;;;5050731;28;20400;-72
2020/12/23 05:46:05;;;;;;;4.70;2.60;;;;;;;;;;5050185;28;20385;-71
2020/12/23 05:48:34;;;;;;;3.90;3.30;;;12.20;99.90;;;;;;5051086;28;20848;-73
2020/12/23 05:51:00;;;;;;;3.50;2.80;;;11.50;99.90;;;;;;5050925;28;20750;-72
2020/12/23 05:53:27;;;;;;;4.25;2.08;;;;;;;;;;5050669;28;20386;-73
2020/12/23 05:55:53;;;;;;;2.65;1.30;;;;;;;;;;5051061;28;21070;-72
2020/12/23 05:58:26;;;;;;;1.60;1.20;;;11.20;99.90;;;;;;5050885;28;20394;-72
2020/12/23 06:00:53;;;;;;;1.77;1.02;;;;;;;;;;5050982;28;20390;-71
2020/12/23 06:03:37;;;;;;;1.50;1.40;;;11.10;99.90;;;;;;5050661;28;20378;-71
2020/12/23 06:06:03;;;;;;;2.38;1.40;;;11.10;99.90;;;;;;5050701;28;20403;-72
2020/12/23 06:08:33;;;;;;;2.10;1.35;;;;;;;;;;5050728;28;21066;-72
2020/12/23 06:11:50;;;;;;;2.58;1.60;;;11.10;99.90;;;;;;5050580;28;20382;-72
2020/12/23 06:14:20;;;;;;;2.15;1.95;;;11.30;99.90;;;;;;5041867;28;20491;-72
2020/12/23 06:16:57;;;;;;;2.90;2.10;;;11.00;99.90;;;;;;5050509;28;20459;-72
2020/12/23 06:19:27;;;;;;;3.13;2.50;;;11.50;99.90;;;;;;5050521;28;20378;-72
2020/12/23 06:21:57;;;;;;;3.08;2.13;;;11.30;99.90;;;;;;5050647;28;20867;-72
2020/12/23 06:24:24;;;;;;;6.60;6.03;;;;;;;;;;5050257;28;20994;-72
2020/12/23 06:26:54;;;;;;;7.07;6.47;;;;;;;;;;5050411;28;20426;-72
2020/12/23 06:29:25;;;;;;;6.10;5.38;;;11.20;99.90;;;;;;5050427;28;20452;-73
2020/12/23 06:31:57;;;;;;;6.40;5.80;;;10.70;99.90;;;;;;5050360;28;20431;-73
2020/12/23 06:34:24;;;;;;;6.15;5.57;;;;;;;;;;5050283;28;20749;-72
2020/12/23 06:36:52;;;;;;;12.88;11.77;;;11.30;99.90;;;;;;5050236;28;20879;-74
2020/12/23 06:39:39;;;;;;;11.43;10.35;;;11.10;99.90;;;;;;5050320;28;20451;-72
2020/12/23 06:42:05;;;;;;;7.57;6.20;;;10.90;99.90;;;;;;5049951;28;20736;-73
2020/12/23 06:44:42;;;;;;;7.37;5.40;;;11.30;99.90;;;;;;5049134;28;20419;-72
2020/12/23 06:47:11;;;;;;;5.85;5.03;;;11.40;99.90;;;;;;5050303;28;20381;-71
2020/12/23 06:49:48;;;;;;;8.13;7.32;;;11.20;99.90;;;;;;5050127;28;20390;-72
2020/12/23 06:52:24;;;;;;;11.52;10.40;;;;;;;;;;5049972;28;20780;-72
2020/12/23 06:55:15;;;;;;;10.57;9.57;;;11.60;99.90;;;;;;5050228;28;20377;-72
2020/12/23 06:57:44;;;;;;;9.57;8.40;;;;;;;;;;5053991;28;20400;-72
2020/12/23 07:00:17;;;;;;;7.88;7.07;;;11.00;99.90;;;;;;5053040;28;20388;-72
2020/12/23 07:02:47;;;;;;;13.48;11.75;;;11.50;99.90;;;;;;5042794;28;20394;-73
2020/12/23 07:05:14;;;;;;;18.35;14.55;;;11.00;99.90;;;;;;5049009;28;20516;-73
2020/12/23 07:07:41;;;;;;;16.65;13.45;;;;;;;;;;5054039;28;20381;-72
2020/12/23 07:10:21;;;;;;;19.10;14.35;;;11.10;99.90;;;;;;5054155;28;20841;-72
2020/12/23 07:12:57;;;;;;;18.13;13.23;;;11.30;99.90;;;;;;5052640;28;20971;-72
2020/12/23 07:15:31;;;;;;;12.77;10.43;;;11.30;99.90;;;;;;5051362;28;20393;-73
2020/12/23 07:17:59;;;;;;;10.75;9.35;;;;;;;;;;5054033;28;20667;-72
2020/12/23 07:20:25;;;;;;;15.20;11.88;;;;;;;;;;5048884;28;20374;-73
2020/12/23 07:22:52;;;;;;;11.43;10.23;;;;;;;;;;5053446;28;20929;-72
2020/12/23 07:25:25;;;;;;;16.30;13.57;;;;;;;;;;5053806;28;20743;-72
2020/12/23 07:27:58;;;;;;;10.93;9.93;;;11.20;99.90;;;;;;5053813;28;20446;-72
2020/12/23 07:30:25;;;;;;;11.18;10.05;;;11.20;99.90;;;;;;5053581;28;20876;-72
2020/12/23 07:33:08;;;;;;;11.50;9.98;;;;;;;;;;5053212;28;20420;-72
2020/12/23 07:35:34;;;;;;;12.15;10.07;;;11.10;99.90;;;;;;5053482;28;20740;-72
2020/12/23 07:38:02;;;;;;;10.40;9.30;;;;;;;;;;5053616;28;20385;-73
2020/12/23 07:40:28;;;;;;;13.88;10.88;;;11.60;99.90;;;;;;5053460;28;20443;-72
2020/12/23 07:42:56;;;;;;;15.63;12.65;;;11.20;99.90;;;;;;5053230;28;20405;-72
2020/12/23 07:45:22;;;;;;;15.02;11.57;;;;;;;;;;5053303;28;20389;-73
2020/12/23 07:47:56;;;;;;;13.73;12.30;;;11.30;99.90;;;;;;5053260;28;20401;-73
2020/12/23 07:50:22;;;;;;;11.82;10.32;;;;;;;;;;5053369;28;20385;-73
2020/12/23 07:52:48;;;;;;;11.82;10.45;;;;;;;;;;5052932;28;20405;-72
2020/12/23 07:55:18;;;;;;;13.45;10.48;;;11.40;99.90;;;;;;5053258;28;20717;-72
2020/12/23 07:57:44;;;;;;;11.55;10.35;;;11.50;99.90;;;;;;5053472;28;20420;-72
2020/12/23 08:00:12;;;;;;;14.50;11.35;;;11.60;99.90;;;;;;5072849;28;20434;-72
2020/12/23 08:02:39;;;;;;;12.02;10.68;;;11.20;99.90;;;;;;5072569;28;20874;-73
2020/12/23 08:05:06;;;;;;;15.05;11.93;;;11.60;99.90;;;;;;5072727;28;20446;-73
2020/12/23 08:07:32;;;;;;;22.92;17.92;;;;;;;;;;5071524;28;20446;-72
2020/12/23 08:10:07;;;;;;;25.40;21.33;;;11.30;99.90;;;;;;5072769;28;20395;-72
2020/12/23 08:12:33;;;;;;;23.15;20.60;;;11.30;99.90;;;;;;5072044;28;20498;-72
2020/12/23 08:14:59;;;;;;;24.08;19.90;;;11.60;99.90;;;;;;5072294;28;20482;-72
2020/12/23 08:17:24;;;;;;;27.75;20.30;;;11.20;99.90;;;;;;5072326;28;20947;-72
2020/12/23 08:20:07;;;;;;;19.92;16.65;;;;;;;;;;5072529;28;20424;-72
2020/12/23 08:22:34;;;;;;;20.20;17.70;;;11.50;99.90;;;;;;5072069;28;20384;-72
2020/12/23 08:25:01;;;;;;;15.60;13.20;;;;;;;;;;5072446;28;20723;-72
2020/12/23 08:27:28;;;;;;;18.83;15.00;;;11.30;99.90;;;;;;5072060;28;20427;-72
2020/12/23 08:29:56;;;;;;;21.05;15.65;;;;;;;;;;5072334;28;20395;-72
2020/12/23 08:32:27;;;;;;;17.50;14.88;;;11.30;99.90;;;;;;5071779;28;20408;-72
2020/12/23 08:34:57;;;;;;;17.10;12.52;;;11.30;99.90;;;;;;5070884;28;20383;-72
2020/12/23 08:37:24;;;;;;;17.38;12.85;;;;;;;;;;5052417;28;20377;-72
2020/12/23 08:39:56;;;;;;;13.48;10.88;;;11.60;99.90;;;;;;5052136;28;20380;-72
2020/12/23 08:42:22;;;;;;;12.73;10.35;;;11.60;99.90;;;;;;5051795;28;20454;-72
2020/12/23 08:44:53;;;;;;;13.67;10.93;;;12.00;99.90;;;;;;5053681;28;20867;-72
2020/12/23 08:47:33;;;;;;;12.07;9.82;;;11.60;99.90;;;;;;5071924;28;20474;-72
2020/12/23 08:50:00;;;;;;;13.23;11.38;;;;;;;;;;5071931;28;20387;-72
2020/12/23 08:52:27;;;;;;;12.45;9.95;;;11.80;99.90;;;;;;5070254;28;20400;-72
2020/12/23 08:54:53;;;;;;;9.55;8.55;;;;;;;;;;5071838;28;20380;-72
2020/12/23 08:57:27;;;;;;;14.05;10.07;;;11.50;99.90;;;;;;5071615;28;20501;-72
2020/12/23 08:59:54;;;;;;;13.07;9.88;;;11.40;99.90;;;;;;5065716;28;20827;-72
2020/12/23 09:02:20;;;;;;;11.63;9.87;;;;;;;;;;5051455;28;20382;-72
2020/12/23 09:04:46;;;;;;;14.55;11.43;;;;;;;;;;5051434;28;20396;-72
2020/12/23 09:07:18;;;;;;;17.58;12.63;;;11.40;99.90;;;;;;5051370;28;20397;-72
2020/12/23 09:09:44;;;;;;;14.45;11.90;;;11.50;99.90;;;;;;5051561;28;20390;-72
2020/12/23 09:12:19;;;;;;;14.33;11.00;;;11.50;99.90;;;;;;5051058;28;20405;-72
2020/12/23 09:14:44;;;;;;;11.95;10.10;;;11.40;99.90;;;;;;5051318;28;20798;-72
2020/12/23 09:17:21;;;;;;;13.98;10.45;;;11.40;99.90;;;;;;5051206;28;20378;-72
2020/12/23 09:19:48;;;;;;;11.32;10.13;;;11.40;99.90;;;;;;5051065;28;20393;-72
2020/12/23 09:22:36;;;;;;;11.82;9.77;;;11.50;99.90;;;;;;5050473;28;21308;-72
2020/12/23 09:25:29;;;;;;;11.68;8.70;;;11.60;99.90;;;;;;5051275;28;20396;-72
2020/12/23 09:28:04;;;;;;;9.57;8.52;;;11.00;99.90;;;;;;5050599;28;20404;-72
2020/12/23 09:30:31;;;;;;;11.18;9.32;;;;;;;;;;5051005;28;20384;-72
2020/12/23 09:32:57;;;;;;;12.82;10.88;;;;;;;;;;5050770;28;20401;-72
2020/12/23 09:35:25;;;;;;;13.27;11.68;;;11.50;99.90;;;;;;5050796;28;20744;-72
2020/12/23 09:38:09;;;;;;;9.63;8.63;;;11.50;99.90;;;;;;5050842;28;20431;-72
2020/12/23 09:40:37;;;;;;;10.13;8.73;;;11.60;99.90;;;;;;5050856;28;20740;-72
2020/12/23 09:43:07;;;;;;;11.80;10.25;;;11.60;99.90;;;;;;5050562;28;20937;-72
2020/12/23 09:45:33;;;;;;;9.13;7.43;;;;;;;;;;5050699;28;20480;-72
2020/12/23 09:47:59;;;;;;;9.45;7.40;;;;;;;;;;5050693;28;20797;-72
2020/12/23 09:50:24;;;;;;;9.15;7.30;;;11.50;99.90;;;;;;5050720;28;20880;-72
2020/12/23 09:52:50;;;;;;;7.30;6.40;;;11.60;99.90;;;;;;5050297;28;20409;-71
2020/12/23 09:55:15;;;;;;;7.60;5.93;;;11.60;99.90;;;;;;5050782;28;20389;-71
2020/12/23 09:57:41;;;;;;;6.50;5.10;;;11.40;99.90;;;;;;5050359;28;20787;-73
2020/12/23 10:00:07;;;;;;;7.35;5.68;;;;;;;;;;5050605;28;20381;-73
2020/12/23 10:02:33;;;;;;;6.43;5.53;;;11.40;99.90;;;;;;5050149;28;20434;-73
2020/12/23 10:04:59;;;;;;;8.57;6.80;;;11.60;99.90;;;;;;5050480;28;20393;-73
2020/12/23 10:07:24;;;;;;;7.43;6.57;;;11.20;99.90;;;;;;5050212;28;20381;-73
2020/12/23 10:09:50;;;;;;;8.77;7.00;;;11.30;99.90;;;;;;5050390;28;20885;-73
2020/12/23 10:12:18;;;;;;;10.07;7.40;;;11.60;99.90;;;;;;5050058;28;20898;-73
2020/12/23 10:14:44;;;;;;;10.77;8.55;;;;;;;;;;5050091;28;20462;-73
2020/12/23 10:17:09;;;;;;;8.20;6.43;;;11.70;99.90;;;;;;5050275;28;20771;-73
2020/12/23 10:19:35;;;;;;;7.13;6.00;;;11.80;99.90;;;;;;5050254;28;20385;-73
2020/12/23 10:22:01;;;;;;;7.50;5.57;;;;;;;;;;5049976;28;20446;-73
2020/12/23 10:24:26;;;;;;;9.32;7.40;;;11.60;99.90;;;;;;5050117;28;20389;-73
2020/12/23 10:26:53;;;;;;;6.47;5.47;;;;;;;;;;5047049;28;20389;-73
2020/12/23 10:29:19;;;;;;;5.50;4.60;;;11.50;99.90;;;;;;5050223;28;20750;-73
2020/12/23 10:31:45;;;;;;;5.82;4.50;;;11.80;99.90;;;;;;5049345;28;20405;-71
2020/12/23 10:34:10;;;;;;;8.02;5.43;;;;;;;;;;5049888;28;20478;-70
2020/12/23 10:36:36;;;;;;;5.50;4.72;;;;;;;;;;5049689;28;20440;-73
2020/12/23 10:39:03;;;;;;;5.80;4.90;;;11.90;99.90;;;;;;5050157;28;20409;-72
2020/12/23 10:41:28;;;;;;;5.28;4.57;;;11.40;99.90;;;;;;5050027;28;20396;-72
2020/12/23 10:43:54;;;;;;;8.73;6.50;;;;;;;;;;5049935;28;20382;-72
2020/12/23 10:46:20;;;;;;;6.07;5.35;;;11.30;99.90;;;;;;5050001;28;20409;-71
2020/12/23 10:48:45;;;;;;;6.38;5.40;;;11.30;99.90;;;;;;5049982;28;20390;-71
2020/12/23 10:51:11;;;;;;;6.95;5.85;;;11.40;99.90;;;;;;5049756;28;20412;-72
2020/12/23 10:53:36;;;;;;;6.13;4.90;;;11.30;99.90;;;;;;5049834;28;20417;-73
2020/12/23 10:56:02;;;;;;;12.97;10.30;;;11.20;99.90;;;;;;5049955;28;20384;-72
2020/12/23 10:58:28;;;;;;;8.73;7.60;;;11.40;99.90;;;;;;5048627;28;20443;-72
2020/12/23 11:00:54;;;;;;;8.90;7.05;;;;;;;;;;5061120;28;20391;-72
2020/12/23 11:03:20;;;;;;;7.90;6.50;;;11.40;99.90;;;;;;5062005;28;20383;-71
2020/12/23 11:05:46;;;;;;;8.82;6.57;;;;;;;;;;5059902;28;20414;-71
2020/12/23 11:08:11;;;;;;;8.73;6.88;;;11.30;99.90;;;;;;5059541;28;20376;-71
2020/12/23 11:10:37;;;;;;;8.30;6.80;;;;;;;;;;5060869;28;20758;-72
2020/12/23 11:13:03;;;;;;;9.05;5.80;;;;;;;;;;5057028;28;20453;-73
2020/12/23 11:15:29;;;;;;;8.93;6.30;;;11.30;99.90;;;;;;5060857;28;20392;-71
2020/12/23 11:17:55;;;;;;;6.18;5.40;;;;;;;;;;5059107;28;20776;-71
2020/12/23 11:20:21;;;;;;;6.95;6.05;;;11.20;99.90;;;;;;5060840;28;20853;-71
2020/12/23 11:22:47;;;;;;;8.83;6.50;;;11.10;99.90;;;;;;5058509;28;20424;-71
2020/12/23 11:25:12;;;;;;;7.28;5.95;;;11.80;99.90;;;;;;5064277;28;20400;-72
2020/12/23 11:27:38;;;;;;;6.70;5.90;;;11.30;99.90;;;;;;5057713;28;20393;-72
2020/12/23 11:30:04;;;;;;;10.80;8.00;;;;;;;;;;5063994;28;20529;-74
2020/12/23 11:32:30;;;;;;;10.70;7.90;;;;;;;;;;5057427;28;20743;-72
2020/12/23 11:34:55;;;;;;;9.73;7.57;;;11.20;99.90;;;;;;5062804;28;20380;-73
2020/12/23 11:37:21;;;;;;;10.50;7.80;;;11.10;99.90;;;;;;5062108;28;20384;-71
2020/12/23 11:39:47;;;;;;;8.23;7.28;;;11.80;99.90;;;;;;5060166;28;20578;-72
2020/12/23 11:42:12;;;;;;;7.43;6.33;;;11.60;99.90;;;;;;5055478;28;20746;-71
2020/12/23 11:44:38;;;;;;;6.80;5.97;;;;;;;;;;5064338;28;20866;-72
2020/12/23 11:47:04;;;;;;;6.07;5.47;;;;;;;;;;5064527;28;20379;-73
2020/12/23 11:49:30;;;;;;;7.07;6.38;;;;;;;;;;5065590;28;20407;-73
2020/12/23 11:51:57;;;;;;;9.50;8.35;;;;;;;;;;5063325;28;20902;-73
2020/12/23 11:54:22;;;;;;;9.85;8.50;;;11.00;99.90;;;;;;5063902;28;20375;-73
2020/12/23 11:56:50;;;;;;;6.50;5.43;;;11.20;99.90;;;;;;5062131;28;20394;-72
2020/12/23 11:59:15;;;;;;;5.88;5.10;;;11.10;99.90;;;;;;5067330;28;20733;-72
2020/12/23 12:01:41;;;;;;;5.67;4.83;;;11.50;99.90;;;;;;5061082;28;20393;-72
2020/12/23 12:04:07;;;;;;;7.53;5.90;;;11.50;99.90;;;;;;5066645;28;20421;-72
2020/12/23 12:06:32;;;;;;;7.50;6.30;;;11.30;99.90;;;;;;5060815;28;20382;-71
2020/12/23 12:08:58;;;;;;;10.10;7.93;;;11.10;99.90;;;;;;5066042;28;20391;-72
2020/12/23 12:11:24;;;;;;;11.60;8.98;;;11.60;99.90;;;;;;5065508;28;20379;-71
2020/12/23 12:13:50;;;;;;;11.23;8.98;;;10.80;99.90;;;;;;5062539;28;20466;-72
2020/12/23 12:16:16;;;;;;;11.38;8.68;;;11.50;99.90;;;;;;5063192;28;20418;-72
2020/12/23 12:18:41;;;;;;;13.80;10.10;;;11.40;99.90;;;;;;5063255;28;20403;-72
2020/12/23 12:21:07;;;;;;;12.43;9.73;;;;;;;;;;5064056;28;20375;-73
2020/12/23 12:23:33;;;;;;;17.37;12.30;;;12.00;99.90;;;;;;5063791;28;20437;-74
2020/12/23 12:25:59;;;;;;;12.93;10.43;;;;;;;;;;5063307;28;20381;-74
2020/12/23 12:28:24;;;;;;;11.20;8.83;;;11.60;99.90;;;;;;5064001;28;20854;-72
2020/12/23 12:30:50;;;;;;;8.93;7.57;;;;;;;;;;5061870;28;20393;-73
2020/12/23 12:33:16;;;;;;;7.63;6.60;;;;;;;;;;5058822;28;20413;-73
2020/12/23 12:35:43;;;;;;;7.50;6.70;;;11.50;99.90;;;;;;5052281;28;20386;-72
2020/12/23 12:38:09;;;;;;;7.97;7.13;;;11.40;99.90;;;;;;5052358;28;20382;-72
2020/12/23 12:40:35;;;;;;;8.30;7.32;;;11.50;99.90;;;;;;5052572;28;20907;-72
2020/12/23 12:43:02;;;;;;;7.32;6.35;;;11.50;99.90;;;;;;5052180;28;20385;-74
2020/12/23 12:45:29;;;;;;;9.50;7.85;;;11.60;99.90;;;;;;5052342;28;20421;-72
2020/12/23 12:47:55;;;;;;;9.48;8.10;;;11.60;99.90;;;;;;5051820;28;20393;-72
2020/12/23 12:50:20;;;;;;;10.50;8.63;;;11.60;99.90;;;;;;5052006;28;20390;-73
2020/12/23 12:52:46;;;;;;;11.05;8.40;;;;;;;;;;5051695;28;20413;-72
2020/12/23 12:55:12;;;;;;;9.65;8.30;;;;;;;;;;5071433;28;20442;-74
2020/12/23 12:57:37;;;;;;;9.88;8.40;;;11.50;99.90;;;;;;5071664;28;21046;-74
2020/12/23 13:00:04;;;;;;;9.02;6.95;;;;;;;;;;5071876;28;20375;-73
2020/12/23 13:02:30;;;;;;;8.77;6.93;;;;;;;;;;5071662;28;20383;-72
2020/12/23 13:04:56;;;;;;;8.52;7.28;;;11.50;99.90;;;;;;5071862;28;20384;-73
2020/12/23 13:07:22;;;;;;;10.43;7.60;;;;;;;;;;5071898;28;20399;-74
2020/12/23 13:09:47;;;;;;;8.95;7.32;;;11.50;99.90;;;;;;5071601;28;20403;-74
2020/12/23 13:12:14;;;;;;;7.63;6.80;;;11.60;99.90;;;;;;5071355;28;20457;-73
2020/12/23 13:14:39;;;;;;;10.05;7.85;;;12.10;99.90;;;;;;5071653;28;20387;-74